Time;durP1;ratioP1;P1;durP2;ratioP2;P2;SDS_P1;SDS_P2;PMS_P1;PMS_P2;Temp;Humidity;BMP_temperature;BMP_pressure;BME280_temperature;BME280_humidity;BME280_pressure;Samples;Min_cycle;Max_cycle;Signal;HPM_P1;HPM_P2
2021/09/21 00:01:11;;;;;;;1.50;1.00;;;14.50;94.50;;;;;;4977367;28;20505;-81
2021/09/21 00:03:38;;;;;;;1.50;1.00;;;14.40;94.40;;;;;;4976686;28;20462;-80
2021/09/21 00:06:07;;;;;;;1.50;1.10;;;14.40;94.50;;;;;;4976255;28;20490;-81
2021/09/21 00:08:35;;;;;;;1.50;1.00;;;14.40;94.50;;;;;;4975559;28;20466;-80
2021/09/21 00:11:03;;;;;;;1.50;1.00;;;14.40;94.40;;;;;;4976290;28;20477;-83
2021/09/21 00:13:31;;;;;;;1.50;1.10;;;14.40;94.40;;;;;;4977525;28;20470;-80
2021/09/21 00:15:58;;;;;;;1.50;1.10;;;14.40;94.30;;;;;;4975293;28;20492;-79
2021/09/21 00:18:26;;;;;;;1.50;1.00;;;14.40;94.30;;;;;;4975616;28;20474;-80
2021/09/21 00:20:52;;;;;;;1.50;1.00;;;14.50;94.50;;;;;;4975893;28;20476;-80
2021/09/21 00:23:21;;;;;;;1.50;1.00;;;14.50;94.30;;;;;;4974430;28;20498;-82
2021/09/21 00:25:48;;;;;;;1.50;1.00;;;14.50;94.90;;;;;;4975605;28;20489;-81
2021/09/21 00:28:15;;;;;;;1.50;0.90;;;14.50;94.70;;;;;;4975834;28;20470;-81
2021/09/21 00:30:47;;;;;;;1.50;1.00;;;14.50;94.60;;;;;;4976300;28;20466;-80
2021/09/21 00:33:17;;;;;;;1.50;0.97;;;14.40;94.90;;;;;;4975850;28;20949;-81
2021/09/21 00:35:44;;;;;;;1.50;1.00;;;14.40;94.90;;;;;;4973247;28;20513;-82
2021/09/21 00:38:13;;;;;;;1.50;0.90;;;14.40;94.60;;;;;;4980623;28;21270;-82
2021/09/21 00:40:41;;;;;;;1.50;1.00;;;14.40;94.50;;;;;;4976274;28;20469;-82
2021/09/21 00:43:08;;;;;;;1.50;1.00;;;14.40;95.10;;;;;;4974855;28;20500;-80
2021/09/21 00:45:35;;;;;;;1.50;1.00;;;14.40;94.70;;;;;;4975121;28;20498;-81
2021/09/21 00:48:02;;;;;;;1.50;1.00;;;14.40;95.10;;;;;;4974124;28;20465;-78
2021/09/21 00:50:30;;;;;;;1.50;1.00;;;14.40;94.90;;;;;;4973148;28;20825;-79
2021/09/21 00:53:00;;;;;;;1.50;1.00;;;14.30;95.00;;;;;;4972275;28;20470;-76
2021/09/21 00:55:28;;;;;;;1.50;1.10;;;14.30;95.20;;;;;;4971187;28;20557;-77
2021/09/21 00:57:56;;;;;;;1.50;1.00;;;14.30;95.30;;;;;;4969640;28;20462;-78
2021/09/21 01:00:23;;;;;;;1.50;1.00;;;14.20;95.50;;;;;;4971168;28;20859;-80
2021/09/21 01:02:51;;;;;;;1.50;1.00;;;14.20;95.60;;;;;;4972874;28;20502;-77
2021/09/21 01:05:18;;;;;;;1.50;1.00;;;14.20;95.60;;;;;;4972064;28;20521;-78
2021/09/21 01:07:45;;;;;;;1.50;1.00;;;14.20;95.70;;;;;;4970324;28;20484;-80
2021/09/21 01:10:14;;;;;;;1.50;1.00;;;14.20;95.50;;;;;;4973184;28;20473;-79
2021/09/21 01:12:41;;;;;;;1.60;1.20;;;14.20;95.70;;;;;;4973442;28;20478;-80
2021/09/21 01:15:10;;;;;;;1.50;1.00;;;14.20;95.60;;;;;;4973703;28;20912;-80
2021/09/21 01:17:37;;;;;;;1.50;1.00;;;14.20;95.80;;;;;;4973916;28;20470;-78
2021/09/21 01:20:06;;;;;;;1.50;1.10;;;14.20;95.80;;;;;;4973112;28;20470;-80
2021/09/21 01:22:35;;;;;;;1.50;1.00;;;14.20;95.80;;;;;;4969818;28;20577;-78
2021/09/21 01:25:02;;;;;;;1.50;0.90;;;14.20;95.80;;;;;;4973098;28;20489;-78
2021/09/21 01:27:28;;;;;;;1.50;1.00;;;14.20;95.60;;;;;;4971746;28;20477;-81
2021/09/21 01:29:55;;;;;;;1.50;0.90;;;14.10;95.60;;;;;;4973045;28;20473;-78
2021/09/21 01:32:22;;;;;;;1.50;1.07;;;14.10;95.60;;;;;;4974043;28;20462;-78
2021/09/21 01:34:49;;;;;;;1.50;0.93;;;14.10;95.60;;;;;;4973284;28;20497;-80
2021/09/21 01:37:16;;;;;;;1.50;1.00;;;14.10;95.50;;;;;;4972647;28;20656;-78
2021/09/21 01:39:45;;;;;;;1.50;1.10;;;14.20;96.00;;;;;;4966526;28;20553;-77
2021/09/21 01:42:12;;;;;;;1.50;0.93;;;14.10;95.50;;;;;;4969767;28;20493;-78
2021/09/21 01:44:39;;;;;;;1.50;1.00;;;14.10;95.50;;;;;;4968396;28;20462;-81
2021/09/21 01:47:06;;;;;;;1.50;1.00;;;14.10;95.70;;;;;;4971255;28;20490;-80
2021/09/21 01:49:39;;;;;;;1.50;1.00;;;14.10;95.40;;;;;;4970607;28;20489;-79
2021/09/21 01:52:11;;;;;;;1.50;1.00;;;14.10;95.40;;;;;;4971868;28;20477;-78
2021/09/21 02:00:14;;;;;;;1.50;1.00;;;14.10;95.50;;;;;;4971447;28;20456;-79
2021/09/21 02:02:41;;;;;;;1.50;1.10;;;14.10;95.40;;;;;;4972322;28;20888;-79
2021/09/21 02:05:08;;;;;;;1.50;1.10;;;14.10;95.60;;;;;;4971708;28;20492;-80
2021/09/21 02:07:35;;;;;;;1.50;1.00;;;14.10;95.50;;;;;;4970821;28;20972;-78
2021/09/21 02:10:02;;;;;;;1.50;1.00;;;14.10;95.50;;;;;;4969235;28;20473;-81
2021/09/21 02:12:30;;;;;;;1.50;1.00;;;14.10;95.60;;;;;;4970168;28;20533;-80
2021/09/21 02:14:58;;;;;;;1.50;1.00;;;14.10;95.40;;;;;;4971608;28;20474;-79
2021/09/21 02:17:25;;;;;;;1.50;1.00;;;14.10;95.60;;;;;;4967941;28;21031;-81
2021/09/21 02:19:52;;;;;;;1.50;1.00;;;14.10;95.60;;;;;;4972108;28;20470;-80
2021/09/21 02:22:19;;;;;;;1.50;1.00;;;14.10;95.50;;;;;;4970550;28;20490;-78
2021/09/21 02:24:46;;;;;;;1.50;1.00;;;14.10;95.40;;;;;;4969934;28;20466;-78
2021/09/21 02:27:13;;;;;;;1.50;1.03;;;14.10;96.00;;;;;;4970938;28;20961;-79
2021/09/21 02:29:41;;;;;;;1.50;0.90;;;14.00;95.60;;;;;;4972011;28;20466;-80
2021/09/21 02:32:07;;;;;;;1.50;1.00;;;14.00;95.80;;;;;;4972506;28;20968;-79
2021/09/21 02:34:34;;;;;;;1.50;0.90;;;14.00;95.50;;;;;;4971578;28;20465;-79
2021/09/21 02:37:01;;;;;;;1.50;1.00;;;14.00;95.80;;;;;;4971127;28;21006;-80
2021/09/21 02:39:28;;;;;;;1.50;1.00;;;14.00;95.80;;;;;;4970914;28;20842;-81
2021/09/21 02:41:55;;;;;;;1.50;1.00;;;14.00;95.90;;;;;;4970673;28;20477;-79
2021/09/21 02:44:21;;;;;;;1.50;1.00;;;14.00;96.10;;;;;;4968535;28;20489;-80
2021/09/21 02:46:51;;;;;;;1.50;1.00;;;14.00;96.10;;;;;;4971829;28;20500;-78
2021/09/21 02:49:17;;;;;;;1.50;1.00;;;14.00;96.10;;;;;;4972532;28;20609;-79
2021/09/21 02:51:44;;;;;;;1.50;1.00;;;14.00;95.90;;;;;;4973416;28;20473;-79
2021/09/21 02:54:11;;;;;;;1.50;1.00;;;14.00;95.80;;;;;;4971665;28;20458;-78
2021/09/21 02:56:38;;;;;;;1.50;1.00;;;14.00;96.00;;;;;;4971596;28;20962;-79
2021/09/21 02:59:05;;;;;;;1.50;1.10;;;14.00;96.10;;;;;;4972691;28;20476;-80
2021/09/21 03:01:32;;;;;;;1.50;1.00;;;14.00;96.40;;;;;;4972867;28;20466;-80
2021/09/21 03:04:04;;;;;;;1.50;1.00;;;14.00;96.50;;;;;;4973798;28;20499;-80
2021/09/21 03:06:33;;;;;;;1.50;1.00;;;14.00;96.60;;;;;;4970467;28;20492;-80
2021/09/21 03:09:07;;;;;;;1.50;1.03;;;13.90;96.40;;;;;;4968695;28;20466;-79
2021/09/21 03:11:40;;;;;;;1.50;1.00;;;13.90;96.20;;;;;;4971940;28;21136;-79
2021/09/21 03:19:37;;;;;;;1.50;1.00;;;13.80;96.00;;;;;;4972101;28;20472;-78
2021/09/21 03:22:04;;;;;;;1.50;1.10;;;13.80;96.20;;;;;;4973372;28;20468;-80
2021/09/21 03:24:32;;;;;;;1.50;1.00;;;13.80;96.40;;;;;;4974297;28;20485;-78
2021/09/21 03:26:59;;;;;;;1.50;1.00;;;13.80;96.10;;;;;;4974073;28;20499;-79
2021/09/21 03:29:28;;;;;;;1.50;1.00;;;13.80;96.30;;;;;;4972982;28;20472;-80
2021/09/21 03:31:55;;;;;;;1.50;1.00;;;13.80;96.20;;;;;;4975439;28;20470;-81
2021/09/21 03:34:21;;;;;;;1.50;1.00;;;13.80;96.40;;;;;;4974995;28;20461;-78
2021/09/21 03:36:49;;;;;;;1.50;1.10;;;13.80;96.40;;;;;;4973369;28;20492;-77
2021/09/21 03:39:16;;;;;;;1.50;1.10;;;13.70;96.50;;;;;;4973118;28;21133;-76
2021/09/21 03:41:43;;;;;;;1.50;1.00;;;13.60;96.70;;;;;;4974241;28;20473;-79
2021/09/21 03:44:09;;;;;;;1.50;1.00;;;13.60;96.80;;;;;;4972213;28;20501;-78
2021/09/21 03:46:36;;;;;;;1.50;1.00;;;13.50;97.10;;;;;;4966500;28;20501;-80
2021/09/21 03:49:04;;;;;;;1.50;1.00;;;13.50;97.30;;;;;;4971906;28;21000;-79
2021/09/21 03:51:30;;;;;;;1.50;1.00;;;13.40;97.50;;;;;;4974628;28;20470;-80
2021/09/21 03:53:59;;;;;;;1.50;1.10;;;13.40;97.60;;;;;;4975551;28;20516;-81
2021/09/21 03:56:26;;;;;;;1.50;1.00;;;13.30;97.90;;;;;;4973661;28;20853;-80
2021/09/21 03:58:52;;;;;;;1.50;1.00;;;13.30;97.90;;;;;;4975748;28;20486;-79
2021/09/21 04:01:19;;;;;;;1.50;1.00;;;13.30;98.20;;;;;;4975331;28;20466;-77
2021/09/21 04:03:46;;;;;;;1.50;1.00;;;13.30;98.20;;;;;;4975499;28;20492;-79
2021/09/21 04:06:14;;;;;;;1.50;1.00;;;13.30;98.10;;;;;;4974553;28;20485;-82
2021/09/21 04:08:40;;;;;;;1.50;1.03;;;13.30;98.00;;;;;;4974300;28;20477;-78
2021/09/21 04:11:09;;;;;;;1.50;1.00;;;13.30;97.70;;;;;;4974513;28;20500;-78
2021/09/21 04:13:35;;;;;;;1.50;1.00;;;13.30;98.00;;;;;;4970680;28;20505;-81
2021/09/21 04:16:02;;;;;;;1.50;1.00;;;13.30;97.90;;;;;;4975537;28;21030;-78
2021/09/21 04:18:29;;;;;;;1.50;1.10;;;13.30;97.80;;;;;;4973589;28;20469;-78
2021/09/21 04:20:56;;;;;;;1.50;1.10;;;13.30;97.80;;;;;;4970429;28;20458;-81
2021/09/21 04:23:23;;;;;;;1.50;1.00;;;13.30;98.00;;;;;;4975840;28;20494;-82
2021/09/21 04:25:50;;;;;;;1.60;1.23;;;13.30;98.20;;;;;;4975985;28;20482;-80
2021/09/21 04:28:20;;;;;;;1.50;1.00;;;13.30;98.00;;;;;;4976423;28;20483;-80
2021/09/21 04:30:47;;;;;;;1.50;1.00;;;13.30;97.90;;;;;;4975855;28;20466;-81
2021/09/21 04:33:14;;;;;;;1.50;0.97;;;13.30;98.00;;;;;;4973917;28;20465;-79
2021/09/21 04:35:41;;;;;;;1.50;1.00;;;13.30;97.90;;;;;;4972234;28;20478;-80
2021/09/21 04:38:08;;;;;;;1.50;1.03;;;13.30;97.80;;;;;;4973572;28;20478;-82
2021/09/21 04:40:35;;;;;;;1.50;0.90;;;13.30;97.60;;;;;;4974558;28;20457;-80
2021/09/21 04:43:02;;;;;;;1.50;1.10;;;13.30;97.60;;;;;;4973494;28;20489;-80
2021/09/21 04:45:30;;;;;;;1.50;0.90;;;13.30;97.50;;;;;;4973305;28;20496;-83
2021/09/21 04:47:57;;;;;;;1.50;1.10;;;13.30;97.60;;;;;;4969441;28;20468;-81
2021/09/21 04:50:24;;;;;;;1.50;1.00;;;13.30;97.60;;;;;;4971915;28;20466;-81
2021/09/21 04:52:51;;;;;;;1.50;1.03;;;13.30;97.60;;;;;;4975297;28;20502;-83
2021/09/21 04:55:18;;;;;;;1.50;1.00;;;13.30;97.60;;;;;;4973428;28;20482;-78
2021/09/21 04:57:44;;;;;;;1.50;1.00;;;13.30;97.60;;;;;;4973195;28;20553;-81
2021/09/21 05:00:12;;;;;;;1.50;1.00;;;13.30;97.50;;;;;;4973849;28;20472;-81
2021/09/21 05:03:06;;;;;;;1.50;1.10;;;13.30;97.40;;;;;;4970460;28;20468;-81
2021/09/21 05:05:33;;;;;;;1.50;1.00;;;13.30;97.50;;;;;;4974437;28;21020;-80
2021/09/21 05:08:00;;;;;;;1.50;1.00;;;13.30;97.30;;;;;;4973275;28;20458;-77
2021/09/21 05:10:27;;;;;;;1.50;1.00;;;13.30;97.20;;;;;;4973185;28;20560;-78
2021/09/21 05:12:54;;;;;;;1.50;1.10;;;13.20;97.40;;;;;;4973276;28;20563;-78
2021/09/21 05:15:21;;;;;;;1.50;1.00;;;13.20;97.70;;;;;;4971911;28;20486;-79
2021/09/21 05:17:49;;;;;;;1.50;1.00;;;13.20;97.40;;;;;;4967126;28;20815;-77
2021/09/21 05:20:19;;;;;;;1.50;1.00;;;13.20;97.70;;;;;;4972583;28;20535;-79
2021/09/21 05:22:50;;;;;;;1.50;1.00;;;13.20;97.50;;;;;;4977343;28;20513;-79
2021/09/21 05:25:18;;;;;;;1.50;1.00;;;13.10;96.90;;;;;;4971032;28;20891;-78
2021/09/21 05:27:45;;;;;;;1.50;1.00;;;13.10;97.10;;;;;;4973055;28;20462;-78
2021/09/21 05:30:15;;;;;;;1.50;1.00;;;13.10;97.40;;;;;;4973510;28;20465;-79
2021/09/21 05:32:42;;;;;;;1.50;1.00;;;13.10;97.70;;;;;;4974448;28;20466;-78
2021/09/21 05:35:11;;;;;;;1.50;1.00;;;13.10;97.40;;;;;;4972711;28;20482;-78
2021/09/21 05:37:38;;;;;;;1.50;1.10;;;13.00;97.20;;;;;;4970102;28;20628;-78
2021/09/21 05:40:10;;;;;;;1.50;1.10;;;13.00;97.40;;;;;;4971309;28;20565;-78
2021/09/21 05:42:43;;;;;;;1.50;1.07;;;13.00;97.50;;;;;;4974088;28;20537;-78
2021/09/21 05:45:10;;;;;;;1.50;1.03;;;13.00;97.70;;;;;;4971918;28;20543;-78
2021/09/21 05:47:40;;;;;;;1.50;1.00;;;13.00;97.90;;;;;;4971723;28;20926;-78
2021/09/21 05:50:08;;;;;;;1.50;1.00;;;12.90;97.90;;;;;;4973115;28;20498;-78
2021/09/21 05:52:36;;;;;;;1.50;1.00;;;12.90;98.10;;;;;;4973692;28;20937;-78
2021/09/21 05:55:04;;;;;;;1.53;1.10;;;12.90;98.10;;;;;;4970230;28;20484;-78
2021/09/21 05:57:31;;;;;;;1.50;1.10;;;12.90;98.20;;;;;;4969834;28;20542;-78
2021/09/21 05:59:58;;;;;;;1.53;1.10;;;12.90;98.20;;;;;;4970662;28;20469;-78
2021/09/21 06:02:25;;;;;;;1.50;1.00;;;12.90;98.20;;;;;;4971857;28;20477;-78
2021/09/21 06:04:52;;;;;;;1.50;1.10;;;12.90;98.20;;;;;;4971454;28;21092;-78
2021/09/21 06:07:19;;;;;;;1.50;1.10;;;12.90;98.20;;;;;;4970025;28;20470;-79
2021/09/21 06:09:48;;;;;;;1.50;1.00;;;12.90;98.20;;;;;;4972334;28;20501;-78
2021/09/21 06:12:14;;;;;;;1.50;1.00;;;13.00;98.20;;;;;;4970818;28;20470;-78
2021/09/21 06:14:41;;;;;;;1.50;1.03;;;13.10;98.20;;;;;;4973305;28;20477;-78
2021/09/21 06:17:09;;;;;;;1.60;1.23;;;13.30;98.20;;;;;;4970736;28;20556;-78
2021/09/21 06:19:36;;;;;;;1.50;1.00;;;13.40;98.00;;;;;;4970293;28;20473;-78
2021/09/21 06:22:04;;;;;;;1.50;1.00;;;13.60;98.20;;;;;;4970629;28;20470;-78
2021/09/21 06:24:31;;;;;;;1.50;1.00;;;13.80;97.70;;;;;;4973659;28;20494;-78
2021/09/21 06:26:59;;;;;;;1.50;1.00;;;13.90;97.40;;;;;;4973155;28;20837;-78
2021/09/21 06:29:26;;;;;;;1.50;1.00;;;14.10;96.20;;;;;;4972054;28;20466;-79
2021/09/21 06:31:53;;;;;;;1.50;1.00;;;14.20;96.00;;;;;;4972388;28;20494;-79
2021/09/21 06:34:20;;;;;;;1.50;1.00;;;14.20;95.20;;;;;;4972913;28;20461;-78
2021/09/21 06:36:46;;;;;;;1.50;1.00;;;14.30;94.90;;;;;;4969663;28;20489;-79
2021/09/21 06:39:13;;;;;;;1.50;1.00;;;14.40;94.30;;;;;;4969703;28;20485;-79
2021/09/21 06:41:40;;;;;;;1.50;1.10;;;14.60;94.50;;;;;;4971830;28;20479;-78
2021/09/21 06:44:09;;;;;;;1.50;1.00;;;14.80;93.20;;;;;;4972517;28;20594;-79
2021/09/21 06:46:36;;;;;;;1.50;1.10;;;14.90;91.90;;;;;;4973146;28;21012;-79
2021/09/21 06:49:03;;;;;;;1.50;1.10;;;15.10;91.40;;;;;;4968498;28;20471;-79
2021/09/21 06:51:31;;;;;;;1.50;1.00;;;15.10;90.30;;;;;;4972213;28;20549;-78
2021/09/21 06:54:08;;;;;;;1.50;1.10;;;15.10;89.90;;;;;;4972142;28;20484;-78
2021/09/21 06:56:36;;;;;;;1.50;1.00;;;15.20;89.00;;;;;;4967522;28;20588;-78
2021/09/21 06:59:03;;;;;;;1.50;1.00;;;15.30;90.10;;;;;;4973018;28;20493;-78
2021/09/21 07:01:34;;;;;;;1.50;1.00;;;15.50;89.40;;;;;;4974864;28;20564;-78
2021/09/21 07:04:02;;;;;;;1.50;1.03;;;15.60;89.40;;;;;;4974954;28;20559;-78
2021/09/21 07:06:32;;;;;;;1.50;1.00;;;15.60;89.30;;;;;;4973579;28;20525;-78
2021/09/21 07:09:00;;;;;;;1.50;1.00;;;15.70;89.30;;;;;;4973113;28;20547;-78
2021/09/21 07:11:28;;;;;;;1.50;1.00;;;15.80;89.30;;;;;;4973137;28;20473;-78
2021/09/21 07:13:55;;;;;;;1.50;1.00;;;15.90;89.50;;;;;;4972446;28;20721;-79
2021/09/21 07:16:22;;;;;;;1.50;0.90;;;16.00;89.60;;;;;;4972001;28;20489;-79
2021/09/21 07:18:51;;;;;;;1.50;0.90;;;16.10;88.60;;;;;;4973901;28;20516;-78
2021/09/21 07:21:19;;;;;;;1.50;1.00;;;16.10;88.50;;;;;;4971416;28;20488;-78
2021/09/21 07:23:48;;;;;;;1.50;1.00;;;16.20;88.20;;;;;;4972784;28;20470;-78
2021/09/21 07:26:16;;;;;;;1.50;1.10;;;16.20;87.40;;;;;;4972216;28;21059;-77
2021/09/21 07:28:43;;;;;;;1.50;1.00;;;16.20;87.90;;;;;;4974684;28;20508;-77
2021/09/21 07:31:10;;;;;;;1.50;1.00;;;16.10;87.70;;;;;;4969894;28;20477;-77
2021/09/21 07:33:37;;;;;;;1.50;0.90;;;16.10;87.70;;;;;;4971478;28;20466;-77
2021/09/21 07:36:05;;;;;;;1.50;1.00;;;16.10;87.80;;;;;;4978497;28;20497;-77
2021/09/21 07:38:32;;;;;;;1.50;0.97;;;16.10;86.50;;;;;;4972039;28;20903;-77
2021/09/21 07:40:59;;;;;;;1.50;1.00;;;16.20;86.10;;;;;;4972807;28;20493;-78
2021/09/21 07:43:26;;;;;;;1.50;0.90;;;16.30;86.10;;;;;;4972180;28;20484;-78
2021/09/21 07:45:53;;;;;;;1.50;0.90;;;16.50;86.20;;;;;;4971402;28;20560;-78
2021/09/21 07:48:21;;;;;;;1.50;1.00;;;16.60;86.20;;;;;;4971971;28;20534;-78
2021/09/21 07:50:48;;;;;;;1.50;1.00;;;16.70;85.30;;;;;;4970777;28;20477;-77
2021/09/21 07:53:16;;;;;;;1.50;1.00;;;16.70;86.60;;;;;;4971299;28;20549;-77
2021/09/21 07:55:44;;;;;;;1.50;0.90;;;16.90;85.70;;;;;;4971562;28;20912;-75
2021/09/21 07:58:14;;;;;;;1.50;1.00;;;17.00;84.40;;;;;;4971374;28;20476;-76
2021/09/21 08:00:41;;;;;;;1.50;1.00;;;17.20;84.20;;;;;;4972359;28;20465;-76
2021/09/21 08:03:08;;;;;;;1.50;0.90;;;17.20;83.60;;;;;;4970422;28;20470;-76
2021/09/21 08:05:35;;;;;;;1.50;0.90;;;17.20;83.70;;;;;;4969897;28;20485;-77
2021/09/21 08:08:02;;;;;;;1.50;1.00;;;17.30;84.50;;;;;;4969389;28;20477;-77
2021/09/21 08:10:30;;;;;;;1.50;1.00;;;17.40;83.80;;;;;;4968100;28;20469;-77
2021/09/21 08:12:57;;;;;;;1.50;0.93;;;17.40;83.40;;;;;;4970369;28;20473;-77
2021/09/21 08:15:26;;;;;;;1.50;1.00;;;17.40;83.90;;;;;;4973014;28;20844;-78
2021/09/21 08:17:53;;;;;;;1.50;1.00;;;17.50;83.10;;;;;;4970431;28;20473;-77
2021/09/21 08:20:20;;;;;;;1.50;0.90;;;17.60;81.20;;;;;;4972730;28;20476;-78
2021/09/21 08:22:47;;;;;;;1.50;0.93;;;17.70;81.00;;;;;;4968301;28;20489;-78
2021/09/21 08:25:14;;;;;;;1.50;1.00;;;17.70;81.00;;;;;;4968005;28;20497;-78
2021/09/21 08:27:43;;;;;;;1.50;0.90;;;17.80;80.80;;;;;;4967448;28;20474;-77
2021/09/21 08:30:11;;;;;;;1.50;1.00;;;17.80;80.40;;;;;;4969477;28;20474;-77
2021/09/21 08:32:38;;;;;;;1.50;1.00;;;18.00;82.20;;;;;;4967868;28;20505;-77
2021/09/21 08:35:06;;;;;;;1.50;0.93;;;18.00;80.50;;;;;;4968900;28;20486;-78
2021/09/21 08:37:33;;;;;;;1.50;0.90;;;18.20;80.80;;;;;;4971439;28;20832;-79
2021/09/21 08:40:00;;;;;;;1.50;1.00;;;18.30;78.70;;;;;;4968120;28;20462;-77
2021/09/21 08:42:27;;;;;;;1.50;1.00;;;18.40;78.60;;;;;;4969102;28;20607;-78
2021/09/21 08:44:55;;;;;;;1.50;0.90;;;18.50;79.10;;;;;;4967798;28;20491;-78
2021/09/21 08:47:22;;;;;;;1.50;0.90;;;18.50;78.00;;;;;;4964957;28;20484;-78
2021/09/21 08:49:49;;;;;;;1.50;0.90;;;18.60;77.50;;;;;;4969043;28;21120;-77
2021/09/21 08:52:16;;;;;;;1.50;0.90;;;18.60;76.90;;;;;;4969277;28;20466;-78
2021/09/21 08:54:43;;;;;;;1.50;0.90;;;18.60;77.40;;;;;;4965362;28;20969;-77
2021/09/21 08:57:10;;;;;;;1.50;1.00;;;18.70;76.70;;;;;;4966714;28;20770;-77
2021/09/21 08:59:38;;;;;;;1.50;1.00;;;18.90;76.30;;;;;;4967826;28;20466;-77
2021/09/21 09:02:08;;;;;;;1.70;1.20;;;19.00;76.80;;;;;;4967634;28;20474;-77
2021/09/21 09:04:36;;;;;;;1.50;0.93;;;19.10;76.60;;;;;;4966539;28;20864;-78
2021/09/21 09:07:04;;;;;;;1.50;0.90;;;19.30;76.20;;;;;;4964539;28;20496;-77
2021/09/21 09:09:33;;;;;;;1.50;0.90;;;19.30;74.90;;;;;;4967766;28;20466;-78
2021/09/21 09:12:02;;;;;;;1.50;0.90;;;19.30;74.50;;;;;;4968134;28;20481;-78
2021/09/21 09:14:30;;;;;;;1.50;0.90;;;19.40;73.60;;;;;;4968994;28;20465;-78
2021/09/21 09:16:59;;;;;;;1.50;0.90;;;19.50;73.60;;;;;;4965094;28;20504;-78
2021/09/21 09:19:32;;;;;;;1.50;0.90;;;19.60;75.00;;;;;;4967948;28;20469;-77
2021/09/21 09:22:06;;;;;;;1.50;0.90;;;19.70;75.50;;;;;;4967105;28;20461;-78
2021/09/21 09:24:32;;;;;;;1.50;1.00;;;19.70;72.70;;;;;;4966824;28;20525;-78
2021/09/21 09:26:59;;;;;;;1.50;0.90;;;19.80;72.70;;;;;;4965755;28;20866;-78
2021/09/21 09:29:26;;;;;;;1.50;0.90;;;19.80;71.40;;;;;;4967974;28;20878;-76
2021/09/21 09:32:00;;;;;;;1.50;0.90;;;19.80;72.20;;;;;;4968458;28;20481;-77
2021/09/21 09:34:27;;;;;;;1.50;0.90;;;19.90;71.90;;;;;;4967461;28;20476;-78
2021/09/21 09:36:58;;;;;;;1.50;0.90;;;19.90;70.90;;;;;;4962602;28;20489;-78
2021/09/21 09:39:26;;;;;;;1.50;0.90;;;19.90;71.00;;;;;;4966767;28;20498;-78
2021/09/21 09:41:55;;;;;;;1.50;0.90;;;20.00;71.10;;;;;;4966799;28;20605;-77
2021/09/21 09:44:24;;;;;;;1.50;0.90;;;20.00;70.80;;;;;;4967733;28;20873;-78
2021/09/21 09:46:53;;;;;;;1.50;0.90;;;20.10;71.40;;;;;;4966859;28;20502;-78
2021/09/21 09:49:28;;;;;;;1.50;0.90;;;20.10;70.20;;;;;;4967238;28;20565;-78
2021/09/21 09:52:02;;;;;;;1.50;0.90;;;20.20;69.40;;;;;;4967604;28;20472;-78
2021/09/21 09:54:31;;;;;;;1.50;0.90;;;20.20;70.10;;;;;;4967077;28;20773;-78
2021/09/21 09:56:58;;;;;;;1.50;0.90;;;20.30;72.10;;;;;;4966052;28;20614;-78
2021/09/21 09:59:28;;;;;;;1.50;0.90;;;20.30;69.30;;;;;;4969899;28;20874;-79
2021/09/21 10:01:55;;;;;;;1.50;0.90;;;20.10;70.10;;;;;;4968911;28;20473;-80
2021/09/21 10:04:23;;;;;;;1.50;0.93;;;20.10;69.00;;;;;;4969287;28;20983;-79
2021/09/21 10:06:50;;;;;;;1.50;0.90;;;20.20;69.20;;;;;;4966874;28;20682;-79
2021/09/21 10:09:19;;;;;;;1.50;0.90;;;20.20;70.50;;;;;;4969955;28;20465;-80
2021/09/21 10:11:49;;;;;;;1.50;0.90;;;20.40;70.90;;;;;;4969240;28;20466;-78
2021/09/21 10:14:18;;;;;;;1.50;1.10;;;20.50;71.30;;;;;;4969792;28;20461;-81
2021/09/21 10:16:53;;;;;;;1.50;0.90;;;20.60;70.90;;;;;;4967806;28;20512;-79
2021/09/21 10:19:22;;;;;;;1.47;0.90;;;20.80;69.80;;;;;;4970512;28;20476;-79
2021/09/21 10:21:50;;;;;;;1.50;0.90;;;20.80;70.30;;;;;;4969523;28;20466;-78
2021/09/21 10:24:29;;;;;;;1.50;0.90;;;21.00;70.30;;;;;;4973296;28;20472;-79
2021/09/21 10:27:03;;;;;;;1.50;0.90;;;21.10;70.50;;;;;;4965369;28;21013;-78
2021/09/21 10:29:30;;;;;;;1.50;0.90;;;21.10;70.70;;;;;;4967073;28;20466;-78
2021/09/21 10:31:58;;;;;;;1.50;0.90;;;21.20;70.80;;;;;;4969369;28;20462;-78
2021/09/21 10:34:25;;;;;;;1.47;0.90;;;21.20;70.70;;;;;;4971310;28;20977;-79
2021/09/21 10:36:54;;;;;;;1.47;0.90;;;21.10;68.70;;;;;;4974458;28;20873;-79
2021/09/21 10:39:24;;;;;;;1.50;0.90;;;20.90;69.30;;;;;;4971254;28;20838;-78
2021/09/21 10:41:53;;;;;;;1.50;0.90;;;20.80;69.50;;;;;;4970748;28;20755;-80
2021/09/21 10:44:21;;;;;;;1.50;0.90;;;20.70;69.70;;;;;;4968356;28;20814;-78
2021/09/21 10:46:52;;;;;;;1.50;0.90;;;20.70;69.20;;;;;;4971578;28;20552;-78
2021/09/21 10:49:26;;;;;;;1.50;0.90;;;20.60;69.20;;;;;;4966428;28;20465;-78
2021/09/21 10:51:57;;;;;;;1.50;0.90;;;20.60;70.30;;;;;;4971254;28;20472;-79
2021/09/21 10:54:34;;;;;;;1.50;0.90;;;20.50;69.80;;;;;;4969720;28;20477;-78
2021/09/21 10:57:06;;;;;;;1.47;0.90;;;20.40;69.80;;;;;;4968406;28;20487;-78
2021/09/21 10:59:33;;;;;;;1.50;1.00;;;20.40;71.30;;;;;;4971041;28;20552;-79
2021/09/21 11:02:04;;;;;;;1.50;1.10;;;20.50;71.20;;;;;;4956806;28;20532;-78
2021/09/21 11:04:38;;;;;;;1.50;0.90;;;20.40;71.60;;;;;;4969428;28;20469;-78
2021/09/21 11:07:05;;;;;;;1.50;0.90;;;20.50;70.70;;;;;;4966422;28;20492;-78
2021/09/21 11:09:33;;;;;;;1.50;0.90;;;20.40;69.50;;;;;;4968888;28;20470;-78
2021/09/21 11:12:05;;;;;;;1.50;0.90;;;20.30;71.20;;;;;;4967385;28;20474;-79
2021/09/21 11:14:32;;;;;;;1.50;0.90;;;20.40;71.70;;;;;;4967296;28;20469;-78
2021/09/21 11:17:00;;;;;;;1.50;0.90;;;20.50;70.90;;;;;;4968186;28;20496;-78
2021/09/21 11:19:29;;;;;;;1.50;0.90;;;20.70;71.30;;;;;;4967963;28;20469;-79
2021/09/21 11:22:01;;;;;;;1.50;0.90;;;20.80;70.80;;;;;;4969130;28;20470;-78
2021/09/21 11:24:28;;;;;;;1.50;0.90;;;20.80;68.50;;;;;;4969969;28;20485;-82
2021/09/21 11:27:05;;;;;;;1.50;0.90;;;20.80;68.60;;;;;;4969780;28;20494;-80
2021/09/21 11:29:34;;;;;;;1.50;1.00;;;20.80;69.80;;;;;;4974947;28;21031;-79
2021/09/21 11:32:01;;;;;;;1.47;0.90;;;20.90;69.70;;;;;;4966209;28;20953;-79
2021/09/21 11:34:29;;;;;;;1.50;0.90;;;21.00;68.50;;;;;;4970367;28;20496;-80
2021/09/21 11:37:01;;;;;;;1.50;0.90;;;20.90;68.40;;;;;;4969999;28;20496;-80
2021/09/21 11:39:30;;;;;;;1.50;0.90;;;21.00;69.00;;;;;;4970204;28;20486;-79
2021/09/21 11:41:58;;;;;;;1.47;0.90;;;21.00;69.80;;;;;;4969035;28;20466;-80
2021/09/21 11:44:37;;;;;;;1.47;0.90;;;21.10;68.90;;;;;;4971664;28;20469;-80
2021/09/21 11:47:04;;;;;;;1.50;0.90;;;21.00;69.10;;;;;;4963506;28;20503;-78
2021/09/21 11:49:31;;;;;;;1.50;1.10;;;21.00;69.20;;;;;;4970316;28;20485;-79
2021/09/21 11:51:58;;;;;;;1.47;0.90;;;21.10;69.50;;;;;;4970474;28;20466;-80
2021/09/21 11:54:25;;;;;;;1.43;0.90;;;21.30;68.60;;;;;;4968835;28;20469;-80
2021/09/21 11:56:54;;;;;;;1.47;0.90;;;21.20;68.10;;;;;;4969326;28;20489;-81
2021/09/21 11:59:21;;;;;;;1.50;0.90;;;21.20;66.90;;;;;;4970701;28;20461;-79
2021/09/21 12:01:51;;;;;;;1.50;0.90;;;21.20;67.70;;;;;;4966875;28;20897;-80
2021/09/21 12:04:17;;;;;;;1.50;0.90;;;21.30;68.90;;;;;;4969169;28;20486;-81
2021/09/21 12:06:47;;;;;;;1.50;0.90;;;21.50;67.90;;;;;;4968846;28;20504;-80
2021/09/21 12:09:15;;;;;;;1.47;0.90;;;21.80;69.10;;;;;;4968719;28;20928;-79
2021/09/21 12:11:45;;;;;;;1.47;0.90;;;21.90;68.10;;;;;;4970159;28;20486;-80
2021/09/21 12:14:16;;;;;;;1.50;0.90;;;21.90;66.50;;;;;;4970391;28;20922;-79
2021/09/21 12:16:49;;;;;;;1.47;0.90;;;22.00;67.10;;;;;;4966077;28;20497;-80
2021/09/21 12:19:18;;;;;;;1.47;0.90;;;22.10;69.00;;;;;;4969849;28;20488;-79
2021/09/21 12:21:46;;;;;;;1.47;0.90;;;22.20;68.00;;;;;;4968650;28;20485;-79
2021/09/21 12:24:13;;;;;;;1.50;0.90;;;22.20;68.10;;;;;;4965001;28;20470;-78
2021/09/21 12:26:40;;;;;;;1.47;0.90;;;22.40;67.10;;;;;;4967318;28;20552;-79
2021/09/21 12:29:08;;;;;;;1.47;0.90;;;22.40;67.40;;;;;;4969340;28;20485;-79
2021/09/21 12:31:36;;;;;;;3.90;1.87;;;22.50;66.60;;;;;;4968775;28;20501;-80
2021/09/21 12:34:12;;;;;;;1.50;0.90;;;22.60;65.30;;;;;;4967034;28;20470;-79
2021/09/21 12:36:47;;;;;;;1.47;0.90;;;22.60;65.00;;;;;;4968063;28;20512;-81
2021/09/21 12:39:17;;;;;;;1.47;0.90;;;22.50;66.00;;;;;;4967940;28;20476;-79
2021/09/21 12:41:47;;;;;;;1.50;0.90;;;22.50;65.70;;;;;;4967550;28;20592;-79
2021/09/21 12:44:16;;;;;;;1.60;0.90;;;22.50;66.10;;;;;;4967911;28;20568;-80
2021/09/21 12:46:45;;;;;;;1.50;0.90;;;22.60;67.30;;;;;;4967964;28;20497;-80
2021/09/21 12:49:14;;;;;;;1.47;0.90;;;22.60;66.10;;;;;;4969433;28;20788;-79
2021/09/21 12:51:47;;;;;;;1.50;0.90;;;22.70;65.70;;;;;;4964507;28;20864;-76
2021/09/21 12:54:16;;;;;;;1.50;0.90;;;22.70;65.20;;;;;;4964720;28;20965;-78
2021/09/21 12:56:52;;;;;;;1.50;0.80;;;22.70;65.70;;;;;;4965493;28;20482;-78
2021/09/21 12:59:21;;;;;;;1.47;0.90;;;22.60;66.30;;;;;;4961740;28;20539;-78
2021/09/21 13:01:49;;;;;;;1.50;0.90;;;22.60;66.80;;;;;;4964957;28;20473;-78
2021/09/21 13:04:16;;;;;;;1.47;0.90;;;22.50;66.20;;;;;;4966454;28;20466;-79